createdAt,value
2019-05-23T00:00:49.419Z,4.17
2019-05-23T00:03:21.661Z,4.60
2019-05-23T00:05:55.128Z,5.90
2019-05-23T00:08:27.913Z,5.13
2019-05-23T00:11:15.405Z,5.30
2019-05-23T00:13:49.229Z,5.10
2019-05-23T00:16:23.403Z,5.63
2019-05-23T00:18:53.658Z,4.63
2019-05-23T00:21:24.274Z,5.87
2019-05-23T00:23:54.495Z,6.20
2019-05-23T00:26:43.775Z,5.03
2019-05-23T00:29:15.023Z,7.67
2019-05-23T00:31:48.138Z,5.03
2019-05-23T00:34:17.889Z,4.17
2019-05-23T00:36:48.550Z,6.40
2019-05-23T00:39:18.776Z,4.80
2019-05-23T00:41:48.806Z,9.43
2019-05-23T00:44:18.219Z,6.10
2019-05-23T00:46:49.039Z,6.27
2019-05-23T00:49:19.241Z,5.90
2019-05-23T00:51:48.377Z,4.73
2019-05-23T00:54:18.386Z,6.20
2019-05-23T00:56:47.882Z,6.37
2019-05-23T00:59:26.595Z,6.57
2019-05-23T01:01:49.492Z,7.27
2019-05-23T01:04:19.120Z,6.77
2019-05-23T01:06:49.263Z,7.67
2019-05-23T01:09:18.498Z,5.83
2019-05-23T01:11:48.004Z,6.37
2019-05-23T01:14:18.366Z,5.73
2019-05-23T01:16:48.190Z,8.17
2019-05-23T01:19:17.858Z,5.10
2019-05-23T01:21:58.370Z,5.97
2019-05-23T01:24:35.907Z,4.83
2019-05-23T01:27:07.208Z,7.40
2019-05-23T01:29:43.358Z,5.03
2019-05-23T01:32:18.228Z,7.07
2019-05-23T01:34:47.651Z,7.20
2019-05-23T01:37:18.288Z,5.87
2019-05-23T01:39:47.711Z,5.23
2019-05-23T02:08:32.170Z,5.57
2019-05-23T02:11:02.201Z,5.40
2019-05-23T02:13:32.520Z,3.70
2019-05-23T02:16:02.340Z,6.03
2019-05-23T02:18:32.191Z,7.80
2019-05-23T02:21:01.557Z,6.13
2019-05-23T02:23:31.235Z,6.90
2019-05-23T02:26:00.391Z,5.37
2019-05-23T02:28:32.410Z,5.50
2019-05-23T02:31:01.845Z,7.77
2019-05-23T02:33:31.686Z,6.20
2019-05-23T02:36:01.629Z,7.70
2019-05-23T02:39:20.323Z,6.77
2019-05-23T02:42:01.362Z,7.57
2019-05-23T02:44:31.990Z,5.10
2019-05-23T02:47:19.390Z,6.67
2019-05-23T02:49:49.787Z,9.50
2019-05-23T02:52:28.790Z,5.60
2019-05-23T02:54:58.047Z,6.13
2019-05-23T02:57:30.456Z,6.90
2019-05-23T03:00:11.003Z,6.30
2019-05-23T03:02:56.402Z,6.93
2019-05-23T03:05:27.856Z,7.20
2019-05-23T03:08:01.268Z,8.20
2019-05-23T03:10:54.905Z,5.97
2019-05-23T03:13:28.341Z,6.87
2019-05-23T03:15:58.233Z,7.93
2019-05-23T03:18:34.251Z,7.90
2019-05-23T03:21:01.688Z,7.13
2019-05-23T03:23:33.110Z,5.40
2019-05-23T03:26:40.598Z,9.20
2019-05-23T03:29:11.493Z,6.67
2019-05-23T03:31:58.990Z,6.07
2019-05-23T03:34:32.345Z,8.40
2019-05-23T03:37:01.852Z,6.97
2019-05-23T03:39:30.987Z,7.57
2019-05-23T03:42:01.075Z,6.63
2019-05-23T03:44:30.907Z,6.40
2019-05-23T03:47:00.419Z,6.17
2019-05-23T03:49:31.423Z,7.60
2019-05-23T03:52:01.055Z,7.07
2019-05-23T03:54:32.277Z,7.63
2019-05-23T03:57:01.747Z,6.87
2019-05-23T03:59:31.128Z,7.60
2019-05-23T04:02:02.084Z,10.33
2019-05-23T04:04:31.913Z,5.97
2019-05-23T04:07:01.353Z,6.70
2019-05-23T04:09:31.169Z,7.10
2019-05-23T04:12:00.646Z,7.10
2019-05-23T04:14:29.967Z,8.67
2019-05-23T04:16:59.291Z,7.47
2019-05-23T04:19:28.856Z,10.10
2019-05-23T04:21:57.971Z,7.63
2019-05-23T04:24:27.235Z,10.37
2019-05-23T04:26:56.796Z,9.13
2019-05-23T04:29:26.039Z,7.47
2019-05-23T04:32:07.184Z,7.73
2019-05-23T04:34:27.264Z,7.33
2019-05-23T04:36:56.431Z,8.60
2019-05-23T04:39:25.761Z,8.83
2019-05-23T04:41:55.518Z,10.13
2019-05-23T04:44:24.587Z,10.27
2019-05-23T04:46:54.334Z,9.40
2019-05-23T04:49:24.518Z,9.70
2019-05-23T04:51:53.598Z,11.63
2019-05-23T04:54:23.096Z,11.07
2019-05-23T04:56:52.201Z,9.83
2019-05-23T04:59:22.090Z,10.50
2019-05-23T05:01:52.282Z,9.27
2019-05-23T05:04:21.565Z,10.63
2019-05-23T05:06:50.674Z,10.30
2019-05-23T05:09:29.174Z,10.20
2019-05-23T05:12:00.253Z,10.10
2019-05-23T05:14:30.559Z,10.77
2019-05-23T05:17:00.237Z,11.97
2019-05-23T05:19:29.757Z,11.07
2019-05-23T05:21:59.203Z,12.53
2019-05-23T05:24:28.488Z,10.93
2019-05-23T05:26:57.816Z,9.73
2019-05-23T05:29:27.018Z,12.63
2019-05-23T05:31:56.424Z,12.10
2019-05-23T05:34:25.884Z,12.00
2019-05-23T05:36:55.014Z,14.17
2019-05-23T05:39:24.785Z,11.90
2019-05-23T05:41:54.268Z,13.03
2019-05-23T05:44:23.808Z,15.83
2019-05-23T05:46:53.126Z,12.17
2019-05-23T05:49:22.333Z,12.03
2019-05-23T05:51:51.914Z,11.90
2019-05-23T05:54:21.707Z,15.10
2019-05-23T05:56:50.874Z,11.43
2019-05-23T05:59:20.317Z,12.23
2019-05-23T06:01:50.089Z,15.00
2019-05-23T06:04:19.283Z,10.03
2019-05-23T06:06:57.339Z,14.23
2019-05-23T06:09:28.879Z,12.73
2019-05-23T06:11:58.698Z,11.77
2019-05-23T06:14:27.730Z,9.07
2019-05-23T06:16:57.409Z,10.70
2019-05-23T06:19:26.703Z,11.53
2019-05-23T06:21:55.840Z,11.47
2019-05-23T06:24:42.399Z,14.77
2019-05-23T06:26:56.245Z,11.47
2019-05-23T06:29:25.889Z,10.43
2019-05-23T06:31:58.838Z,9.97
2019-05-23T06:34:27.823Z,11.30
2019-05-23T06:36:57.501Z,11.30
2019-05-23T06:39:27.150Z,9.83
2019-05-23T06:41:57.131Z,13.97
2019-05-23T06:44:27.257Z,11.97
2019-05-23T06:46:56.584Z,14.10
2019-05-23T06:49:25.933Z,11.40
2019-05-23T06:51:55.038Z,13.47
2019-05-23T06:54:24.491Z,10.50
2019-05-23T06:56:53.567Z,11.67
2019-05-23T06:59:22.645Z,11.67
2019-05-23T07:01:53.275Z,10.57
2019-05-23T07:04:22.540Z,9.87
2019-05-23T07:06:52.613Z,12.73
2019-05-23T07:09:22.736Z,11.70
2019-05-23T07:11:55.960Z,11.50
2019-05-23T07:14:25.836Z,11.30
2019-05-23T07:16:54.918Z,11.13
2019-05-23T07:19:24.110Z,11.27
2019-05-23T07:21:53.398Z,13.87
2019-05-23T07:24:22.759Z,10.30
2019-05-23T07:26:51.834Z,10.57
2019-05-23T07:29:21.492Z,10.70
2019-05-23T07:31:51.099Z,11.20
2019-05-23T07:34:21.270Z,11.07
2019-05-23T07:36:50.673Z,11.00
2019-05-23T07:39:20.339Z,8.33
2019-05-23T07:41:49.759Z,9.07
2019-05-23T07:44:19.196Z,10.77
2019-05-23T07:46:48.338Z,10.43
2019-05-23T07:49:17.632Z,11.90
2019-05-23T07:51:46.988Z,13.50
2019-05-23T07:54:44.910Z,12.07
2019-05-23T07:57:17.794Z,10.47
2019-05-23T07:59:47.900Z,11.13
2019-05-23T08:02:27.071Z,13.23
2019-05-23T08:04:56.350Z,11.13
2019-05-23T08:07:25.750Z,10.53
2019-05-23T08:09:56.488Z,11.70
2019-05-23T08:12:25.768Z,11.23
2019-05-23T08:14:54.957Z,10.27
2019-05-23T08:17:24.730Z,12.90
2019-05-23T08:19:54.119Z,10.20
2019-05-23T08:22:27.949Z,11.40
2019-05-23T08:24:57.587Z,12.43
2019-05-23T08:27:26.579Z,10.30
2019-05-23T08:29:56.466Z,10.17
2019-05-23T08:32:25.723Z,10.57
2019-05-23T08:34:58.201Z,11.47
2019-05-23T08:37:27.859Z,11.73
2019-05-23T08:39:56.996Z,9.33
2019-05-23T08:42:26.428Z,9.60
2019-05-23T08:44:57.184Z,10.87
2019-05-23T08:47:26.366Z,10.43
2019-05-23T08:49:55.532Z,7.17
2019-05-23T08:52:26.153Z,9.27
2019-05-23T08:54:58.631Z,6.77
2019-05-23T08:57:28.090Z,5.37
2019-05-23T08:59:57.440Z,5.40
2019-05-23T09:02:27.438Z,8.73
2019-05-23T09:05:05.139Z,6.73
2019-05-23T09:07:28.798Z,5.67
2019-05-23T09:09:58.490Z,7.20
2019-05-23T09:12:27.589Z,7.27
2019-05-23T09:14:56.756Z,3.70
2019-05-23T09:17:26.105Z,3.60
2019-05-23T09:19:55.269Z,5.07
2019-05-23T09:22:24.495Z,3.77
2019-05-23T09:24:54.087Z,4.07
2019-05-23T09:27:42.267Z,4.13
2019-05-23T09:30:13.269Z,5.97
2019-05-23T09:32:42.338Z,3.20
2019-05-23T09:35:20.933Z,5.60
2019-05-23T09:37:43.708Z,2.73
2019-05-23T09:40:13.107Z,2.70
2019-05-23T09:42:42.360Z,4.27
2019-05-23T09:45:11.971Z,3.10
2019-05-23T09:47:41.536Z,4.17
2019-05-23T09:50:14.020Z,3.23
2019-05-23T09:52:43.364Z,3.23
2019-05-23T09:55:13.629Z,2.97
2019-05-23T09:57:42.927Z,1.67
2019-05-23T10:00:15.275Z,1.53
2019-05-23T10:02:44.416Z,3.23
2019-05-23T10:05:14.130Z,4.77
2019-05-23T10:07:43.436Z,2.37
2019-05-23T10:10:12.903Z,2.57
2019-05-23T10:12:41.977Z,3.03
2019-05-23T10:15:19.898Z,3.33
2019-05-23T10:17:49.062Z,1.40
2019-05-23T10:20:18.737Z,2.57
2019-05-23T10:22:47.839Z,2.13
2019-05-23T10:25:16.924Z,3.00
2019-05-23T10:27:45.937Z,1.70
2019-05-23T10:30:17.559Z,2.37
2019-05-23T10:32:46.725Z,2.23
2019-05-23T10:35:16.706Z,1.57
2019-05-23T10:37:46.305Z,1.57
2019-05-23T10:40:17.162Z,2.03
2019-05-23T10:42:46.221Z,1.20
2019-05-23T10:45:15.829Z,2.17
2019-05-23T10:47:44.901Z,1.87
2019-05-23T10:50:14.427Z,2.40
2019-05-23T10:52:48.227Z,1.73
2019-05-23T10:55:17.525Z,2.07
2019-05-23T10:57:46.813Z,2.53
2019-05-23T11:00:20.037Z,2.70
2019-05-23T11:02:50.589Z,6.27
2019-05-23T11:05:23.028Z,2.60
2019-05-23T11:07:52.214Z,3.87
2019-05-23T11:10:21.961Z,3.07
2019-05-23T11:12:51.159Z,5.00
2019-05-23T11:15:20.764Z,4.17
2019-05-23T11:17:53.796Z,2.03
2019-05-23T11:20:23.247Z,2.13
2019-05-23T11:22:55.078Z,4.17
2019-05-23T11:25:24.630Z,1.93
2019-05-23T11:27:56.726Z,2.37
2019-05-23T11:30:32.295Z,2.03
2019-05-23T11:33:01.311Z,2.17
2019-05-23T11:35:30.842Z,1.57
2019-05-23T11:38:00.213Z,2.27
2019-05-23T11:40:29.559Z,1.27
2019-05-23T11:43:00.490Z,1.60
2019-05-23T11:45:32.617Z,1.40
2019-05-23T11:48:01.938Z,1.97
2019-05-23T11:50:31.371Z,1.63
2019-05-23T11:53:00.598Z,2.23
2019-05-23T11:55:29.802Z,3.77
2019-05-23T11:57:59.050Z,2.63
2019-05-23T12:00:58.653Z,3.20
2019-05-23T12:03:27.812Z,1.10
2019-05-23T12:05:56.897Z,0.97
2019-05-23T12:08:27.056Z,1.47
2019-05-23T12:10:56.203Z,1.67
2019-05-23T12:13:25.564Z,1.87
2019-05-23T12:15:57.103Z,2.10
2019-05-23T12:18:26.252Z,3.47
2019-05-23T12:20:59.553Z,1.77
2019-05-23T12:23:27.843Z,1.57
2019-05-23T12:25:58.842Z,3.87
2019-05-23T12:28:28.378Z,2.93
2019-05-23T12:30:57.766Z,1.60
2019-05-23T12:33:26.867Z,2.20
2019-05-23T12:35:55.871Z,1.77
2019-05-23T12:38:25.097Z,2.40
2019-05-23T12:40:54.137Z,3.43
2019-05-23T12:43:23.279Z,2.17
2019-05-23T12:45:52.437Z,2.03
2019-05-23T12:48:40.581Z,1.60
2019-05-23T12:51:10.249Z,3.93
2019-05-23T12:53:39.531Z,2.73
2019-05-23T12:56:08.817Z,2.00
2019-05-23T12:58:38.998Z,2.27
2019-05-23T13:01:14.611Z,2.80
2019-05-23T13:03:41.802Z,2.07
2019-05-23T13:06:10.954Z,3.07
2019-05-23T13:08:40.142Z,2.93
2019-05-23T13:11:09.848Z,3.33
2019-05-23T13:13:39.049Z,2.97
2019-05-23T13:16:08.311Z,4.30
2019-05-23T13:18:37.641Z,4.87
2019-05-23T13:21:06.702Z,2.87
2019-05-23T13:23:35.842Z,2.13
2019-05-23T13:26:05.084Z,4.43
2019-05-23T13:28:34.354Z,3.10
2019-05-23T13:31:03.524Z,3.63
2019-05-23T13:33:32.842Z,4.37
2019-05-23T13:36:02.178Z,4.23
2019-05-23T13:38:31.463Z,3.83
2019-05-23T13:41:00.883Z,2.50
2019-05-23T13:43:30.109Z,2.23
2019-05-23T13:45:59.273Z,3.03
2019-05-23T13:48:28.576Z,3.87
2019-05-23T13:50:57.941Z,3.47
2019-05-23T13:53:27.312Z,3.90
2019-05-23T13:55:56.481Z,3.77
2019-05-23T13:58:25.644Z,4.33
2019-05-23T14:00:55.043Z,2.90
2019-05-23T14:03:25.101Z,3.20
2019-05-23T14:05:54.248Z,3.73
2019-05-23T14:08:23.384Z,5.00
2019-05-23T14:10:52.750Z,4.57
2019-05-23T14:13:22.363Z,3.70
2019-05-23T14:15:52.681Z,4.30
2019-05-23T14:18:22.507Z,3.50
2019-05-23T14:20:51.835Z,3.17
2019-05-23T14:23:29.229Z,2.77
2019-05-23T14:25:59.703Z,4.53
2019-05-23T14:28:29.446Z,6.00
2019-05-23T14:31:27.093Z,3.70
2019-05-23T14:34:24.396Z,2.60
2019-05-23T14:37:11.135Z,4.33
2019-05-23T14:39:44.278Z,5.57
2019-05-23T14:42:31.155Z,2.77
2019-05-23T14:45:00.411Z,3.83
2019-05-23T14:47:44.628Z,4.03
2019-05-23T14:50:32.280Z,6.03
2019-05-23T14:53:03.511Z,3.30
2019-05-23T14:55:32.735Z,3.93
2019-05-23T14:58:01.719Z,4.43
2019-05-23T15:00:31.591Z,2.07
2019-05-23T15:03:00.653Z,3.67
2019-05-23T15:05:30.112Z,4.00
2019-05-23T15:07:59.307Z,4.23
2019-05-23T15:10:29.107Z,3.83
2019-05-23T15:12:59.968Z,4.07
2019-05-23T15:15:29.401Z,5.10
2019-05-23T15:17:58.652Z,6.77
2019-05-23T15:20:27.888Z,4.90
2019-05-23T15:22:59.846Z,7.30
2019-05-23T15:25:27.986Z,4.80
2019-05-23T15:27:57.282Z,3.53
2019-05-23T15:30:26.452Z,3.00
2019-05-23T15:32:55.561Z,4.00
2019-05-23T15:35:25.188Z,3.30
2019-05-23T15:37:54.268Z,2.87
2019-05-23T15:40:23.839Z,1.63
2019-05-23T15:42:53.281Z,4.03
2019-05-23T15:45:22.402Z,2.43
2019-05-23T15:47:51.771Z,2.07
2019-05-23T15:50:23.509Z,2.03
2019-05-23T15:53:08.498Z,1.90
2019-05-23T15:56:24.029Z,2.63
2019-05-23T15:58:52.723Z,3.40
2019-05-23T16:01:30.899Z,2.33
2019-05-23T16:04:03.931Z,3.80
2019-05-23T16:06:34.623Z,2.20
2019-05-23T16:09:07.269Z,3.30
2019-05-23T16:11:36.862Z,1.47
2019-05-23T16:14:06.008Z,9.07
2019-05-23T16:16:35.260Z,2.40
2019-05-23T16:19:04.788Z,6.73
2019-05-23T16:21:33.967Z,9.17
2019-05-23T16:24:04.056Z,5.27
2019-05-23T16:26:33.319Z,2.77
2019-05-23T16:29:02.619Z,1.83
2019-05-23T16:31:31.714Z,1.97
2019-05-23T16:34:04.879Z,1.80
2019-05-23T16:36:34.359Z,3.00
2019-05-23T16:39:04.399Z,2.83
2019-05-23T16:41:33.624Z,2.07
2019-05-23T16:44:02.727Z,3.03
2019-05-23T16:46:32.125Z,1.63
2019-05-23T16:49:01.389Z,3.53
2019-05-23T16:51:30.553Z,2.03
2019-05-23T16:54:00.128Z,2.90
2019-05-23T16:56:48.419Z,1.80
2019-05-23T16:59:32.447Z,2.97
2019-05-23T17:02:29.664Z,3.07
2019-05-23T17:05:20.599Z,1.70
2019-05-23T17:08:06.509Z,1.97
2019-05-23T17:10:40.941Z,3.53
2019-05-23T17:13:15.970Z,2.50
2019-05-23T17:16:00.177Z,2.10
2019-05-23T17:18:46.960Z,3.53
2019-05-23T17:21:47.391Z,3.00
2019-05-23T17:24:31.360Z,1.70
2019-05-23T17:27:08.374Z,1.87
2019-05-23T17:29:46.524Z,2.33
2019-05-23T17:32:19.235Z,3.53
2019-05-23T17:34:48.512Z,3.80
2019-05-23T17:37:19.326Z,4.57
2019-05-23T17:39:49.072Z,2.10
2019-05-23T17:42:21.504Z,2.53
2019-05-23T17:44:50.643Z,2.10
2019-05-23T17:47:20.000Z,2.43
2019-05-23T17:49:49.175Z,2.23
2019-05-23T17:52:18.865Z,3.60
2019-05-23T17:54:47.944Z,2.00
2019-05-23T17:57:19.987Z,1.93
2019-05-23T17:59:49.265Z,1.50
2019-05-23T18:02:18.989Z,1.27
2019-05-23T18:04:48.334Z,2.57
2019-05-23T18:07:20.951Z,2.13
2019-05-23T18:09:50.116Z,2.30
2019-05-23T18:12:19.854Z,1.20
2019-05-23T18:14:49.661Z,2.67
2019-05-23T18:17:19.060Z,1.60
2019-05-23T18:19:48.304Z,1.43
2019-05-23T18:22:18.383Z,1.93
2019-05-23T18:24:47.934Z,2.47
2019-05-23T18:27:17.197Z,2.80
2019-05-23T18:29:46.318Z,2.13
2019-05-23T18:32:20.681Z,1.30
2019-05-23T18:34:49.967Z,2.07
2019-05-23T18:37:19.613Z,1.67
2019-05-23T18:39:48.812Z,1.40
2019-05-23T18:42:19.121Z,4.03
2019-05-23T18:44:49.400Z,2.63
2019-05-23T18:47:24.762Z,2.67
2019-05-23T18:49:54.116Z,16.20
2019-05-23T18:52:23.190Z,1.80
2019-05-23T18:54:52.377Z,9.53
2019-05-23T18:57:21.680Z,1.83
2019-05-23T18:59:50.831Z,2.13
2019-05-23T19:02:20.287Z,4.47
2019-05-23T19:04:51.019Z,2.57
2019-05-23T19:07:20.300Z,4.13
2019-05-23T19:09:52.414Z,4.20
2019-05-23T19:12:23.304Z,3.13
2019-05-23T19:14:52.374Z,3.80
2019-05-23T19:17:21.580Z,2.80
2019-05-23T19:19:50.682Z,1.43
2019-05-23T19:22:19.810Z,2.83
2019-05-23T19:24:49.583Z,2.50
2019-05-23T19:27:19.851Z,2.30
2019-05-23T19:29:50.070Z,3.00
2019-05-23T19:32:19.704Z,3.83
2019-05-23T19:34:49.138Z,2.77
2019-05-23T19:37:18.708Z,3.03
2019-05-23T19:39:50.948Z,3.93
2019-05-23T19:42:20.422Z,2.23
2019-05-23T19:44:49.608Z,2.67
2019-05-23T19:47:19.073Z,3.03
2019-05-23T19:49:48.316Z,5.17
2019-05-23T19:52:18.027Z,3.80
2019-05-23T19:54:47.571Z,2.30
2019-05-23T19:57:16.849Z,3.20
2019-05-23T19:59:46.002Z,2.10
2019-05-23T20:02:34.273Z,2.27
2019-05-23T20:05:11.455Z,2.17
2019-05-23T20:07:40.867Z,1.90
2019-05-23T20:10:10.893Z,1.80
2019-05-23T20:12:39.959Z,2.43
2019-05-23T20:15:09.471Z,2.80
2019-05-23T20:17:38.656Z,3.03
2019-05-23T20:20:08.197Z,2.47
2019-05-23T20:22:37.388Z,2.43
2019-05-23T20:25:06.787Z,2.20
2019-05-23T20:27:35.802Z,3.87
2019-05-23T20:30:09.960Z,2.57
2019-05-23T20:32:39.051Z,1.70
2019-05-23T20:35:08.315Z,3.30
2019-05-23T20:37:38.603Z,2.23
2019-05-23T20:40:08.109Z,6.80
2019-05-23T20:42:37.254Z,5.83
2019-05-23T20:45:06.715Z,1.87
2019-05-23T20:47:36.185Z,3.67
2019-05-23T20:50:06.009Z,4.53
2019-05-23T20:52:35.070Z,4.17
2019-05-23T20:55:04.376Z,3.67
2019-05-23T20:57:33.442Z,2.70
2019-05-23T21:00:02.784Z,4.13
2019-05-23T21:02:32.092Z,1.93
2019-05-23T21:05:01.179Z,5.03
2019-05-23T21:07:30.668Z,4.60
2019-05-23T21:09:59.755Z,3.23
2019-05-23T21:12:30.359Z,4.07
2019-05-23T21:14:59.846Z,4.47
2019-05-23T21:17:30.582Z,2.93
2019-05-23T21:20:05.934Z,5.10
2019-05-23T21:22:35.094Z,3.90
2019-05-23T21:25:04.577Z,4.20
2019-05-23T21:27:33.823Z,2.33
2019-05-23T21:30:03.011Z,3.73
2019-05-23T21:32:32.088Z,3.00
2019-05-23T21:35:01.420Z,3.10
2019-05-23T21:37:30.533Z,4.20
2019-05-23T21:39:59.806Z,4.13
2019-05-23T21:42:44.939Z,2.20
2019-05-23T21:45:00.274Z,2.27
2019-05-23T21:47:29.555Z,3.30
2019-05-23T21:49:58.963Z,5.80
2019-05-23T21:52:28.053Z,5.83
2019-05-23T21:54:57.188Z,3.27
2019-05-23T21:57:26.455Z,2.30
2019-05-23T21:59:58.473Z,3.63
2019-05-23T22:02:32.239Z,3.37
2019-05-23T22:05:10.596Z,4.77
2019-05-23T22:07:39.828Z,5.20
2019-05-23T22:10:09.679Z,3.83
2019-05-23T22:12:39.056Z,2.57
2019-05-23T22:15:08.765Z,3.73
2019-05-23T22:17:38.015Z,3.20
2019-05-23T22:20:07.087Z,4.10
2019-05-23T22:22:36.294Z,2.90
2019-05-23T22:25:05.610Z,5.33
2019-05-23T22:27:35.060Z,4.73
2019-05-23T22:30:05.695Z,4.53
2019-05-23T22:32:34.767Z,5.10
2019-05-23T22:35:16.579Z,3.97
2019-05-23T22:37:45.751Z,4.23
2019-05-23T22:40:16.858Z,3.10
2019-05-23T22:42:48.265Z,3.00
2019-05-23T22:45:20.225Z,5.47
2019-05-23T22:47:54.329Z,6.13
2019-05-23T22:50:23.402Z,5.37
2019-05-23T22:52:52.479Z,6.00
2019-05-23T22:55:21.862Z,3.67
2019-05-23T22:57:50.905Z,3.27
2019-05-23T23:00:28.039Z,5.47
2019-05-23T23:02:57.327Z,3.53
2019-05-23T23:05:26.317Z,5.60
2019-05-23T23:07:55.889Z,3.33
2019-05-23T23:10:25.027Z,4.40
2019-05-23T23:12:54.155Z,5.23
2019-05-23T23:15:24.270Z,4.23
2019-05-23T23:17:53.390Z,3.93
2019-05-23T23:20:22.383Z,4.47
2019-05-23T23:22:51.674Z,3.20
2019-05-23T23:25:20.780Z,3.80
2019-05-23T23:27:49.913Z,4.60
2019-05-23T23:30:22.991Z,3.77
2019-05-23T23:32:52.115Z,4.57
2019-05-23T23:35:21.193Z,3.90
2019-05-23T23:37:50.599Z,4.07
2019-05-23T23:40:19.846Z,4.63
2019-05-23T23:42:48.970Z,3.03
2019-05-23T23:45:36.001Z,3.47
2019-05-23T23:48:22.790Z,3.97
2019-05-23T23:51:10.226Z,3.33
2019-05-23T23:53:56.905Z,4.30
2019-05-23T23:56:44.050Z,4.57
2019-05-23T23:59:12.286Z,6.37
